• Join FlightAware (Why Join?)
  • Login
  • US Flag 
06:07PM EDT


 

Airport Tracker/Info


-or-


 

Live Flight TrackerFlight Track Log ✈ AWE1940 ✈ 14-Jun-2013 ✈ KIAH - KCLT

Flight Track Log - Related Links

Times and Time Zones

All times are in EDT time to prevent confusion due to time zone crossing. See the AWE1940 flight status page for this flight to view local times or setup timezone preferences in your user account.

Time Position Orientation Groundspeed Altitude Reporting Facility
EDT Latitude Longitude Course Direction KTS MPH feet Rate Location/Type
07:16PM 29.9550 -95.3394 90° East 170 196 1,000  Level Houston Center
07:17PM 29.9286 -95.3017 129° Southeast 199 229 2,100 1,680 Climbing Houston Center
07:18PM 29.8867 -95.2369 127° Southeast 252 290 4,200 2,460 Climbing Houston Center
07:19PM 29.9834 -94.9479 90° East  Level FlightAware Approximate
07:19PM 29.8381 -95.1633 127° Southeast 279 321 7,200  Level Houston Center
07:19PM 29.8025 -95.0978 122° Southeast 270 311 9,700 2,160 Climbing Houston Center
07:20PM 29.9834 -94.8194 90° East  Level FlightAware Approximate
07:20PM 29.8025 -95.0892 90° East 278 320 9,900  Level Houston Center
07:21PM 29.9834 -94.6909 90° East  Level FlightAware Approximate
07:21PM 29.8339 -94.9778 72° East 305 351 11,500  Level Houston Center
07:22PM 29.8603 -94.8692 74° East 342 394 14,100 2,040 Climbing Houston Center
07:23PM 29.8881 -94.7575 74° East 360 414 15,800 1,920 Climbing Houston Center
07:24PM 29.9153 -94.6442 74° East 367 422 18,100 1,980 Climbing Houston Center
07:25PM 29.9431 -94.5275 75° East 374 430 19,900 1,500 Climbing Houston Center
07:26PM 29.9714 -94.4094 74° East 387 445 21,300 1,560 Climbing Houston Center
07:27PM 30.0025 -94.2594 76° East 399 459 23,200 1,500 Climbing Houston Center
07:28PM 30.0178 -94.1286 82° East 410 472 24,500 1,200 Climbing Houston Center
07:29PM 30.0347 -93.9947 82° East 420 483 25,800 1,320 Climbing Houston Center
07:30PM 30.0525 -93.8586 81° East 429 494 27,300 1,200 Climbing Houston Center
07:31PM 30.0453 -93.7239 94° East 431 496 28,300 1,020 Climbing Houston Center
07:32PM 29.9947 -93.5622 110° East 449 517 29,500 1,260 Climbing Houston Center
07:33PM 29.9519 -93.4278 110° East 451 519 31,000 1,260 Climbing Houston Center
07:34PM 29.9100 -93.2975 110° East 441 507 32,200 900 Climbing Houston Center
07:35PM 29.9344 -93.1714 77° East 428 493 32,900 360 Climbing Houston Center
07:36PM 30.0247 -93.0886 38° Northeast 419 482 33,000  Climbing Houston Center
07:37PM 30.1372 -92.9894 37° Northeast 425 489 33,000  Level Houston Center
07:38PM 30.2297 -92.9058 38° Northeast 424 488 33,000  Level Houston Center
07:39PM 30.3311 -92.8336 32° Northeast 429 494 33,000  Level Houston Center
07:40PM 30.4325 -92.7664 30° Northeast 427 491 33,000  Level Houston Center
07:41PM 30.5233 -92.6825 38° Northeast 426 490 33,000  Level Houston Center
07:42PM 30.5936 -92.5442 59° Northeast 419 482 33,100  Climbing Houston Center
07:44PM 30.6578 -92.4275 57° Northeast 426 490 33,000 -60 Descending Houston Center
07:45PM 30.7422 -92.3283 45° Northeast 432 497 33,000  Level Houston Center
07:46PM 30.8244 -92.2247 47° Northeast 438 504 33,000  Level Houston Center
07:47PM 30.9086 -92.1219 46° Northeast 441 507 33,100  Climbing Houston Center
07:48PM 30.9922 -92.0197 46° Northeast 439 505 33,000  Descending Houston Center
07:49PM 31.0672 -91.8708 60° Northeast 448 516 33,100  Climbing Houston Center
07:50PM 31.1233 -91.7431 63° Northeast 445 512 33,100  Level Houston Center
07:51PM 31.1817 -91.6139 62° Northeast 450 518 33,100  Level Houston Center
07:52PM 31.2383 -91.4833 63° Northeast 452 520 33,100  Level Houston Center
07:53PM 31.2969 -91.3522 62° Northeast 456 525 33,100  Level Houston Center
07:54PM 31.3528 -91.2228 63° Northeast 450 518 33,100 -60 Level Houston Center
07:55PM 31.4158 -91.0783 63° Northeast 450 518 33,000 -60 Descending Houston Center
07:56PM 31.4725 -90.9481 63° Northeast 449 517 33,000  Level Houston Center
07:57PM 31.5306 -90.8167 63° Northeast 452 520 33,000  Level Houston Center
07:58PM 31.5864 -90.6853 63° Northeast 451 519 33,000  Level Houston Center
07:59PM 31.6553 -90.5278 63° Northeast 453 521 33,000  Level Houston Center
08:00PM 31.7106 -90.3953 64° Northeast 452 520 33,000  Level Houston Center
08:01PM 31.7667 -90.2636 63° Northeast 451 519 33,000  Level Houston Center
08:02PM 31.8231 -90.1328 63° Northeast 449 517 33,000  Level Houston Center
08:03PM 31.8797 -90.0006 63° Northeast 451 519 33,000  Level Houston Center
08:04PM 31.9506 -89.8311 64° Northeast 444 511 33,100  Climbing Memphis Center
08:05PM 32.0064 -89.7008 63° Northeast 444 511 33,100  Level Memphis Center
08:06PM 32.0639 -89.5656 63° Northeast 444 511 33,100  Level Memphis Center
08:07PM 32.1133 -89.4450 64° Northeast 444 511 33,100  Level Memphis Center
08:08PM 32.1686 -89.3119 64° Northeast 444 511 33,100  Level Memphis Center
08:09PM 32.2258 -89.1786 63° Northeast 444 511 33,100 -60 Level Memphis Center
08:10PM 32.2786 -89.0453 65° Northeast 444 511 33,000 -60 Descending Memphis Center
08:11PM 32.3356 -88.9092 64° Northeast 444 511 33,000  Level Memphis Center
08:12PM 32.3925 -88.7778 63° Northeast 444 511 33,000  Level Memphis Center
08:13PM 32.4514 -88.6511 61° Northeast 444 511 33,000  Level Memphis Center
08:14PM 32.5122 -88.5194 61° Northeast 449 517 33,000  Level Memphis Center
08:15PM 32.5728 -88.3925 60° Northeast 449 517 33,000  Level Memphis Center
08:18PM 32.7222 -88.0731 61° Northeast 436 502 33,000  Level Atlanta Center
08:19PM 32.7761 -87.9497 63° Northeast 450 518 33,000  Level Atlanta Center
08:20PM 32.8389 -87.8189 60° Northeast 450 518 33,000  Level Atlanta Center
08:21PM 32.9014 -87.6756 63° Northeast 444 511 33,100  Climbing Atlanta Center
08:22PM 32.9594 -87.5444 62° Northeast 444 511 33,100  Level Atlanta Center
08:23PM 33.0083 -87.4397 61° Northeast 444 511 33,100  Level Atlanta Center
08:24PM 33.0750 -87.2886 62° Northeast 449 517 33,100  Level Atlanta Center
08:25PM 33.1328 -87.1544 63° Northeast 449 517 33,100  Level Atlanta Center
08:26PM 33.2033 -87.0106 60° Northeast 449 517 33,100 -60 Level Atlanta Center
08:27PM 33.2483 -86.8731 69° East 444 511 33,000  Descending Atlanta Center
08:28PM 33.2703 -86.7247 80° East 444 511 33,100  Climbing Atlanta Center
08:29PM 33.2944 -86.5689 79° East 455 524 33,000  Descending Atlanta Center
08:30PM 33.3183 -86.4153 79° East 460 529 33,100  Climbing Atlanta Center
08:31PM 33.3442 -86.2669 78° East 460 529 33,100  Level Atlanta Center
08:32PM 33.3697 -86.1208 78° East 460 529 33,100  Level Atlanta Center
08:33PM 33.3931 -85.9669 80° East 460 529 33,100 -60 Level Atlanta Center
08:34PM 33.4161 -85.8183 79° East 465 535 33,000  Descending Atlanta Center
08:35PM 33.4431 -85.6769 77° East 446 513 33,100  Climbing Atlanta Center
08:36PM 33.4639 -85.5278 80° East 446 513 33,100  Level Atlanta Center
08:37PM 33.4864 -85.3839 79° East 446 513 33,100  Level Atlanta Center
08:38PM 33.5089 -85.2347 80° East 446 513 33,100 -60 Level Atlanta Center
08:39PM 33.5311 -85.0881 80° East 446 513 33,000  Descending Atlanta Center
08:40PM 33.5486 -84.9586 81° East 446 513 33,100  Climbing Atlanta Center
08:41PM 33.5728 -84.8117 79° East 446 513 33,100  Level Atlanta Center
08:42PM 33.5986 -84.6522 79° East 446 513 33,100  Level Atlanta Center
08:43PM 33.6117 -84.5153 83° East 455 524 33,100  Level Atlanta Center
08:44PM 33.6436 -84.3731 75° East 450 518 33,100  Level Atlanta Center
08:45PM 33.6833 -84.2386 70° East 436 502 33,100  Level Atlanta Center
08:46PM 33.7233 -84.0936 72° East 447 514 33,100  Level Atlanta Center
08:47PM 33.7628 -83.9564 71° East 435 501 33,100  Level Atlanta Center
08:48PM 33.8003 -83.8139 72° East 435 501 33,100  Level Atlanta Center
08:49PM 33.8397 -83.6786 71° East 430 495 33,100 -480 Level Atlanta Center
08:50PM 33.8789 -83.5383 71° East 430 495 32,200 -900 Descending Atlanta Center
08:51PM 33.9158 -83.4006 72° East 430 495 31,300 -900 Descending Atlanta Center
08:52PM 33.9567 -83.2500 72° East 452 520 30,400 -1,020 Descending Atlanta Center
08:53PM 33.9994 -83.0942 72° East 452 520 29,300 -1,200 Descending Atlanta Center
08:54PM 34.0378 -82.9458 73° East 452 520 28,000 -1,500 Descending Atlanta Center
08:55PM 34.0761 -82.8025 72° East 452 520 26,300 -1,680 Descending Atlanta Center
08:56PM 34.1122 -82.6614 73° East 446 513 24,700 -1,200 Descending Atlanta Center
08:57PM 34.1503 -82.5453 68° East 425 489 24,000 -300 Descending Atlanta Center
08:58PM 34.1842 -82.4092 73° East 420 483 24,100  Climbing Atlanta Center
08:59PM 34.2197 -82.2728 72° East 420 483 24,100 -60 Level Atlanta Center
09:00PM 34.2617 -82.1411 69° East 425 489 24,000 -720 Descending Atlanta Center
09:01PM 34.3353 -82.0464 47° Northeast 403 464 22,700 -1,860 Descending Atlanta Center
09:02PM 34.4111 -81.9514 46° Northeast 392 451 20,300 -2,400 Descending Atlanta Center
09:03PM 34.4825 -81.8589 47° Northeast 378 435 18,000 -2,520 Descending Atlanta Center
09:04PM 34.5722 -81.7533 44° Northeast 359 413 15,100 -2,400 Descending Atlanta Center
09:05PM 34.6233 -81.6914 45° Northeast 351 404 13,400 -2,040 Descending Atlanta Center
09:06PM 34.6925 -81.5983 48° Northeast 338 389 11,300 -1,140 Descending Atlanta Center
09:07PM 34.7494 -81.5233 47° Northeast 307 353 11,100 -120 Descending Atlanta Center
09:08PM 34.8042 -81.4533 46° Northeast 284 327 11,100 -600 Level Atlanta Center
09:09PM 34.8444 -81.3864 54° Northeast 278 320 9,900 -1,440 Descending Atlanta Center
09:10PM 34.8611 -81.2847 79° East 278 320 8,300 -1,440 Descending Atlanta Center
09:11PM 34.8778 -81.1956 77° East 278 320 7,100 -900 Descending Atlanta Center
09:12PM 34.8925 -81.1064 79° East 278 320 6,600 -900 Descending Atlanta Center
09:13PM 34.9092 -81.0247 76° East 262 302 5,400 -1,200 Descending Atlanta Center
09:13PM 34.9147 -80.9967 76° East 229 264 5,100 -360 Descending Atlanta Center
09:14PM 34.9386 -80.9450 61° Northeast 179 206 5,000 -120 Descending Atlanta Center
09:15PM 34.9883 -80.9331 11° North 180 207 4,900 -120 Descending Atlanta Center